Flight Track Log - Related Links

Times and Time Zones

All times are in EDT time to prevent confusion due to time zone crossing. See the AAL2059 flight status page for this flight to view local times or setup timezone preferences in your user account.

Time Position Orientation Groundspeed Altitude Reporting Facility
EDT Latitude Longitude Course Direction KTS MPH feet Rate Location/Type
Fri 07:38:00 PM 32.8479 -96.8004 10° North  Level FlightAware Approximate
Fri 07:39:00 PM 32.9666 -96.8000 North  Level FlightAware Approximate
Fri 07:40:00 PM 33.0708 -96.8624 333° Northwest  Level FlightAware Approximate
Fri 07:41:00 PM 33.1769 -96.9261 333° Northwest  Level FlightAware Approximate
Fri 07:42:00 PM 33.2825 -96.9911 332° Northwest  Level FlightAware Approximate
Fri 07:43:00 PM 33.3764 -97.0632 337° Northwest  Level FlightAware Approximate
Fri 07:44:00 PM 33.4882 -97.0928 16° North  Level FlightAware Approximate
Fri 07:45:00 PM 33.6057 -97.0765 North  Level FlightAware Approximate
Fri 07:46:00 PM 33.7243 -97.0674 North  Level FlightAware Approximate
Fri 07:47:00 PM 33.8413 -97.0441 North  Level FlightAware Approximate
Fri 07:48:00 PM 33.9595 -97.0333 North  Level FlightAware Approximate
Fri 07:49:00 PM 34.0776 -97.0186 North  Level FlightAware Approximate
Fri 07:50:00 PM 34.1956 -97.0028 North  Level FlightAware Approximate
Fri 07:51:00 PM 34.3139 -96.9903 North  Level FlightAware Approximate
Fri 07:52:00 PM 34.4269 -97.0107 333° Northwest  Level FlightAware Approximate
Fri 07:53:00 PM 34.5323 -97.0771 333° Northwest  Level FlightAware Approximate
Fri 07:54:00 PM 34.6377 -97.1437 333° Northwest  Level FlightAware Approximate
Fri 07:55:00 PM 34.7430 -97.2104 333° Northwest  Level FlightAware Approximate
Fri 07:56:00 PM 34.8483 -97.2773 332° Northwest  Level FlightAware Approximate
Fri 07:57:00 PM 34.9536 -97.3444 332° Northwest  Level FlightAware Approximate
Fri 07:58:00 PM 35.0588 -97.4116 332° Northwest  Level FlightAware Approximate
Fri 07:59:00 PM 35.1638 -97.4794 332° Northwest  Level FlightAware Approximate
Fri 08:00:00 PM 35.2688 -97.5473 332° Northwest  Level FlightAware Approximate
Fri 08:01:00 PM 35.3632 -97.6288 299° West  Level FlightAware Approximate
Fri 08:02:00 PM 35.4213 -97.7558 299° West  Level FlightAware Approximate
Fri 08:03:00 PM 35.4793 -97.8831 299° West  Level FlightAware Approximate
Fri 08:04:00 PM 35.5371 -98.0105 299° West  Level FlightAware Approximate
Fri 08:05:00 PM 35.5948 -98.1381 299° West  Level FlightAware Approximate
Fri 08:06:00 PM 35.6524 -98.2659 299° West  Level FlightAware Approximate
Fri 08:07:00 PM 35.7098 -98.3939 299° West  Level FlightAware Approximate
Fri 08:08:00 PM 35.7671 -98.5220 299° West  Level FlightAware Approximate
Fri 08:09:00 PM 35.8234 -98.6508 295° West  Level FlightAware Approximate
Fri 08:10:00 PM 35.8744 -98.7832 295° West  Level FlightAware Approximate
Fri 08:11:00 PM 35.9281 -98.9139 299° West  Level FlightAware Approximate
Fri 08:12:00 PM 35.9847 -99.0429 298° West  Level FlightAware Approximate
Fri 08:13:00 PM 36.0411 -99.1721 298° West  Level FlightAware Approximate
Fri 08:14:00 PM 36.0974 -99.3015 298° West  Level FlightAware Approximate
Fri 08:15:00 PM 36.1535 -99.4310 298° West  Level FlightAware Approximate
Fri 08:16:00 PM 36.2086 -99.5614 297° West  Level FlightAware Approximate
Fri 08:17:00 PM 36.2623 -99.6926 297° West  Level FlightAware Approximate
Fri 08:18:00 PM 36.3160 -99.8241 297° West  Level FlightAware Approximate
Fri 08:19:00 PM 36.3836 -99.9445 309° West  Level FlightAware Approximate
Fri 08:20:00 PM 36.4578 -100.0597 309° West  Level FlightAware Approximate
Fri 08:21:00 PM 36.5319 -100.1751 309° West  Level FlightAware Approximate
Fri 08:22:00 PM 36.6059 -100.2908 309° West  Level FlightAware Approximate
Fri 08:23:00 PM 36.6798 -100.4066 309° West  Level FlightAware Approximate
Fri 08:24:00 PM 36.7536 -100.5228 308° West  Level FlightAware Approximate
Fri 08:25:00 PM 36.8273 -100.6391 308° West  Level FlightAware Approximate
Fri 08:26:00 PM 36.9008 -100.7556 308° West  Level FlightAware Approximate
Fri 08:27:00 PM 36.9742 -100.8724 308° West  Level FlightAware Approximate
Fri 08:28:00 PM 37.0481 -100.9888 310° West  Level FlightAware Approximate
Fri 08:29:00 PM 37.1244 -101.1029 310° West  Level FlightAware Approximate
Fri 08:30:00 PM 37.2005 -101.2173 310° West  Level FlightAware Approximate
Fri 08:31:00 PM 37.2786 -101.3297 312° West  Level FlightAware Approximate
Fri 08:32:00 PM 37.3580 -101.4407 312° West  Level FlightAware Approximate
Fri 08:33:00 PM 37.4373 -101.5520 312° West  Level FlightAware Approximate
Fri 08:34:00 PM 37.5151 -101.6650 310° West  Level FlightAware Approximate
Fri 08:35:00 PM 37.5908 -101.7804 310° West  Level FlightAware Approximate
Fri 08:36:00 PM 37.6664 -101.8960 310° West  Level FlightAware Approximate
Fri 08:37:00 PM 37.7419 -102.0119 310° West  Level FlightAware Approximate
Fri 08:38:00 PM 37.8198 -102.1254 312° West  Level FlightAware Approximate
Fri 08:39:00 PM 37.8987 -102.2377 312° West  Level FlightAware Approximate
Fri 08:40:00 PM 37.9776 -102.3503 312° West  Level FlightAware Approximate
Fri 08:41:00 PM 38.0563 -102.4632 312° West  Level FlightAware Approximate
Fri 08:42:00 PM 38.1274 -102.5823 293° West  Level FlightAware Approximate
Fri 08:43:00 PM 38.1974 -102.7036 311° West  Level FlightAware Approximate
Fri 08:44:00 PM 38.2759 -102.8169 311° West  Level FlightAware Approximate
Fri 08:45:00 PM 38.3527 -102.9323 307° West  Level FlightAware Approximate
Fri 08:46:00 PM 38.4306 -103.0463 314° West  Level FlightAware Approximate
Fri 08:47:00 PM 38.5078 -103.1609 312° West  Level FlightAware Approximate
Fri 08:48:00 PM 38.5870 -103.2740 303° West  Level FlightAware Approximate
Fri 08:49:00 PM 38.6590 -103.3943 312° West  Level FlightAware Approximate
Fri 08:50:00 PM 38.7378 -103.5081 312° West  Level FlightAware Approximate
Fri 08:51:00 PM 38.8171 -103.6205 277° West  Level FlightAware Approximate
Fri 08:52:00 PM 38.8322 -103.7717 277° West  Level FlightAware Approximate
Fri 08:53:00 PM 38.8519 -103.9221 280° West  Level FlightAware Approximate
Fri 08:54:00 PM 38.8667 -104.0730 270° West  Level FlightAware Approximate
Fri 08:55:00 PM 38.8864 -104.2226 276° West  Level FlightAware Approximate
Fri 08:56:00 PM 38.8981 -104.3745 276° West  Level FlightAware Approximate
Fri 08:57:00 PM 38.9179 -104.5249 280° West  Level FlightAware Approximate

Login

Don't have an account? Register now (free) for customized features, flight alerts, and more!